createdAt,value
2023-03-23T20:05:00.258Z,5.00
2023-03-23T20:07:30.779Z,4.90
2023-03-23T20:10:14.054Z,4.40
2023-03-23T20:18:44.803Z,3.30
2023-03-23T20:21:14.352Z,3.15
2023-03-23T20:24:12.649Z,2.80
2023-03-23T20:26:48.654Z,2.92
2023-03-23T20:29:16.566Z,2.75
2023-03-23T20:31:46.699Z,2.88
2023-03-23T20:40:11.459Z,2.95
2023-03-23T20:43:01.255Z,3.58
2023-03-23T20:45:39.497Z,2.83
2023-03-23T20:48:24.671Z,3.15
2023-03-23T20:51:10.784Z,2.85
2023-03-23T20:56:38.976Z,2.67
2023-03-23T20:59:26.890Z,2.80
2023-03-23T21:01:54.776Z,2.90
2023-03-23T21:04:57.820Z,2.80
2023-03-23T21:07:27.841Z,2.70
2023-03-23T21:10:07.399Z,3.03
2023-03-23T21:12:38.087Z,3.25
2023-03-23T21:18:34.426Z,2.67
2023-03-23T21:24:16.589Z,2.67
2023-03-23T21:30:06.996Z,2.30
2023-03-23T21:35:24.013Z,3.38
2023-03-23T21:37:57.883Z,2.60
2023-03-23T21:40:27.610Z,2.65
2023-03-23T21:43:00.905Z,3.10
2023-03-23T21:45:29.973Z,3.25
2023-03-23T21:48:23.271Z,2.75
2023-03-23T21:56:23.144Z,2.95
2023-03-23T21:59:03.878Z,2.60
2023-03-23T22:01:36.900Z,2.75
2023-03-23T22:04:07.233Z,2.70
2023-03-23T22:06:50.032Z,3.00
2023-03-23T22:09:23.320Z,2.90
2023-03-23T22:11:53.257Z,2.70
2023-03-23T22:14:21.059Z,2.35
2023-03-23T22:16:56.587Z,2.63
2023-03-23T22:19:25.449Z,2.30
2023-03-23T22:22:07.220Z,2.38
2023-03-23T22:24:37.622Z,2.50
2023-03-23T22:27:12.790Z,2.35
2023-03-23T22:29:43.945Z,2.30
2023-03-23T22:32:19.880Z,2.45
2023-03-23T22:34:57.565Z,2.78
2023-03-23T22:37:27.675Z,2.28
2023-03-23T22:39:54.989Z,2.67
2023-03-23T22:42:28.345Z,2.05
2023-03-23T22:45:03.649Z,2.35
2023-03-23T22:48:00.594Z,3.15
2023-03-23T22:50:34.560Z,2.40
2023-03-23T22:53:02.108Z,2.30
2023-03-23T22:55:56.124Z,2.22
2023-03-23T22:58:32.483Z,2.33
2023-03-23T23:01:25.934Z,2.55
2023-03-23T23:06:28.848Z,2.35
2023-03-23T23:08:59.045Z,2.40
2023-03-23T23:11:38.889Z,2.20
2023-03-23T23:14:07.870Z,2.20
2023-03-23T23:16:35.390Z,2.58
2023-03-23T23:19:05.580Z,1.98
2023-03-23T23:21:37.520Z,2.70
2023-03-23T23:24:28.861Z,2.15
2023-03-23T23:26:56.338Z,2.40
2023-03-23T23:29:23.860Z,1.83
2023-03-23T23:31:51.246Z,2.10
2023-03-23T23:34:18.468Z,2.20
2023-03-23T23:36:46.152Z,2.15
2023-03-23T23:39:13.628Z,3.03
2023-03-23T23:41:41.007Z,2.13
2023-03-23T23:44:08.589Z,2.67
2023-03-23T23:46:36.064Z,3.05
2023-03-23T23:49:04.371Z,2.22
2023-03-23T23:51:33.798Z,2.42
2023-03-23T23:54:02.407Z,3.47
2023-03-23T23:56:29.793Z,2.85
2023-03-23T23:58:57.329Z,2.90
